.
WxDataArchive / Data Records for 2008-07-10
2008-07-09 July 2008 2008-07-11

Data Records for Thursday, 10 July 2008

Time	Temp	Chill	HIndex	Humid	Dewpt	 Wind 	HiWind	WindDir	Rain 	Barom 
-----	----	-----	------	-----	-----	------	------	-------	-----	----- 
00:00	59.0	59.0	59.0	86	54.8	0	0	---	0.00	29.982 
00:05	59.0	59.0	59.0	86	54.8	0	0	---	0.00	29.984 
00:10	59.0	59.0	59.0	87	55.1	0	0	---	0.00	29.987 
00:15	59.0	59.0	59.0	87	55.1	0	0	---	0.00	29.988 
00:20	58.9	58.9	58.9	86	54.7	0	0	---	0.00	29.991 
00:25	58.9	58.9	58.9	87	55.0	0	0	---	0.00	29.991 
00:30	58.7	58.7	58.7	87	54.8	0	0	---	0.00	29.988 
00:35	58.7	58.7	58.7	87	54.8	0	0	---	0.00	29.986 
00:40	58.7	58.7	58.7	88	55.2	0	0	---	0.00	29.986 
00:45	58.9	58.9	58.9	88	55.3	0	0	---	0.00	29.988 
00:50	58.7	58.7	58.7	88	55.2	0	0	---	0.00	29.987 
00:55	58.7	58.7	58.7	88	55.2	0	0	---	0.00	29.985 
01:00	58.7	58.7	58.7	88	55.2	0	0	---	0.00	29.987 
01:05	58.7	58.7	58.7	88	55.2	0	0	---	0.00	29.988 
01:10	58.7	58.7	58.7	88	55.2	0	0	---	0.00	29.988 
01:15	58.7	58.7	58.7	88	55.2	0	0	---	0.00	29.988 
01:20	58.6	58.6	58.6	88	55.1	0	0	---	0.00	29.987 
01:25	58.6	58.6	58.6	88	55.1	0	0	---	0.00	29.987 
01:30	58.6	58.6	58.6	88	55.1	0	0	---	0.00	29.987 
01:35	58.4	58.4	58.4	88	54.9	0	0	---	0.00	29.988 
01:40	58.4	58.4	58.4	88	54.9	0	0	---	0.00	29.989 
01:45	58.3	58.3	58.3	89	55.1	0	0	---	0.00	29.989 
01:50	58.3	58.3	58.3	89	55.1	0	0	---	0.00	29.989 
01:55	58.3	58.3	58.3	89	55.1	0	0	---	0.00	29.988 
02:00	58.1	58.1	58.1	89	54.9	0	0	---	0.00	29.981 
02:05	58.1	58.1	58.1	89	54.9	0	0	---	0.00	29.985 
02:10	58.0	58.0	58.0	90	55.1	0	0	---	0.00	29.981 
02:15	58.0	58.0	58.0	90	55.1	0	0	---	0.00	29.982 
02:20	58.0	58.0	58.0	90	55.1	0	0	---	0.00	29.986 
02:25	57.8	57.8	57.8	90	54.9	0	0	---	0.00	29.984 
02:30	57.8	57.8	57.8	90	54.9	0	0	---	0.00	29.984 
02:35	57.8	57.8	57.8	90	54.9	0	0	---	0.00	29.981 
02:40	57.6	57.6	57.6	91	55.0	0	0	---	0.00	29.984 
02:45	57.6	57.6	57.6	91	55.0	0	0	---	0.00	29.983 
02:50	57.6	57.6	57.6	91	55.0	0	0	---	0.00	29.982 
02:55	57.6	57.6	57.6	91	55.0	0	0	---	0.00	29.982 
03:00	57.5	57.5	57.5	91	54.9	0	0	---	0.00	29.977 
03:05	57.5	57.5	57.5	92	55.2	0	0	---	0.00	29.981 
03:10	57.5	57.5	57.5	92	55.2	0	0	---	0.00	29.985 
03:15	57.5	57.5	57.5	92	55.2	0	0	---	0.00	29.983 
03:20	57.3	57.3	57.3	92	55.0	0	0	---	0.00	29.988 
03:25	57.3	57.3	57.3	92	55.0	0	0	---	0.00	29.987 
03:30	57.3	57.3	57.3	92	55.0	0	0	---	0.00	29.986 
03:35	57.3	57.3	57.3	92	55.0	0	0	---	0.00	29.986 
03:40	57.3	57.3	57.3	92	55.0	0	0	---	0.00	29.985 
03:45	57.3	57.3	57.3	93	55.3	0	0	---	0.00	29.986 
03:50	57.2	57.2	57.2	93	55.2	0	0	---	0.00	29.984 
03:55	57.2	57.2	57.2	93	55.2	0	0	---	0.00	29.983 
04:00	57.2	57.2	57.2	93	55.2	0	0	---	0.00	29.981 
04:05	57.2	57.2	57.2	93	55.2	0	0	---	0.00	29.982 
04:10	57.2	57.2	57.2	93	55.2	0	0	---	0.00	29.981 
04:15	57.2	57.2	57.2	93	55.2	0	0	---	0.00	29.980 
04:20	57.2	57.2	57.2	93	55.2	0	0	---	0.00	29.983 
04:25	57.2	57.2	57.2	94	55.5	0	0	---	0.00	29.985 
04:30	57.2	57.2	57.2	94	55.5	0	0	---	0.00	29.989 
04:35	57.2	57.2	57.2	94	55.5	0	0	---	0.00	29.988 
04:40	57.3	57.3	57.3	94	55.6	0	0	---	0.00	29.989 
04:45	57.3	57.3	57.3	94	55.6	0	0	---	0.00	29.990 
04:50	57.3	57.3	57.3	94	55.6	0	0	---	0.00	29.991 
04:55	57.3	57.3	57.3	94	55.6	0	0	---	0.00	29.991 
05:00	57.3	57.3	57.3	94	55.6	0	0	---	0.00	29.992 
05:05	57.3	57.3	57.3	94	55.6	0	0	---	0.00	29.995 
05:10	57.2	57.2	57.2	94	55.5	0	0	---	0.00	29.996 
05:15	57.2	57.2	57.2	94	55.5	0	0	---	0.00	29.997 
05:20	57.0	57.0	57.0	94	55.3	0	0	---	0.00	29.999 
05:25	57.0	57.0	57.0	94	55.3	0	0	---	0.00	29.999 
05:30	57.0	57.0	57.0	94	55.3	0	0	---	0.00	30.000 
05:35	57.0	57.0	57.0	95	55.6	0	0	---	0.00	30.004 
05:40	57.2	57.2	57.2	95	55.8	0	0	---	0.00	30.006 
05:45	57.2	57.2	57.2	95	55.8	0	0	---	0.00	30.007 
05:50	57.3	57.3	57.3	95	55.9	0	0	---	0.00	30.008 
05:55	57.5	57.5	57.5	95	56.1	0	0	---	0.00	30.009 
06:00	57.6	57.6	57.6	95	56.2	0	0	---	0.00	30.009 
06:05	57.8	57.8	57.8	95	56.4	0	0	---	0.00	30.009 
06:10	58.0	58.0	58.0	95	56.6	0	0	---	0.00	30.009 
06:15	58.3	58.3	58.3	95	56.9	0	0	---	0.00	30.009 
06:20	58.4	58.4	58.4	95	57.0	0	0	---	0.00	30.008 
06:25	58.9	58.9	58.9	95	57.5	0	0	---	0.00	30.006 
06:30	59.3	59.3	59.3	95	57.9	0	0	---	0.00	30.008 
06:35	59.9	59.9	59.9	95	58.5	0	0	---	0.00	30.010 
06:40	60.4	60.4	60.4	95	59.0	0	0	---	0.00	30.015 
06:45	60.9	60.9	60.9	95	59.5	0	0	---	0.00	30.017 
06:50	61.2	61.2	61.2	94	59.5	0	0	---	0.00	30.014 
06:55	61.6	61.6	61.6	92	59.2	0	0	---	0.00	30.014 
07:00	62.1	62.1	62.1	91	59.4	0	0	---	0.00	30.012 
07:05	62.7	62.7	62.7	89	59.4	0	0	---	0.00	30.015 
07:10	63.4	63.4	63.4	88	59.8	0	0	---	0.00	30.014 
07:15	64.0	64.0	64.0	86	59.7	0	1	292	0.00	30.017 
07:20	64.8	64.8	64.8	84	59.8	0	0	---	0.00	30.016 
07:25	65.2	65.2	65.2	81	59.2	0	1	292	0.00	30.018 
07:30	65.6	65.6	65.6	78	58.5	0	1	292	0.00	30.017 
07:35	66.1	66.1	66.1	77	58.7	0	1	292	0.00	30.018 
07:40	66.6	66.6	66.6	75	58.4	0	1	292	0.00	30.018 
07:45	66.8	66.8	66.8	74	58.2	0	1	292	0.00	30.018 
07:50	67.1	67.1	67.1	74	58.5	0	0	---	0.00	30.018 
07:55	67.3	67.3	67.3	74	58.7	0	1	292	0.00	30.018 
08:00	67.6	67.6	67.6	73	58.6	0	0	---	0.00	30.017 
08:05	68.3	68.3	68.3	72	58.9	0	1	292	0.00	30.023 
08:10	69.3	69.3	69.3	73	60.3	0	1	292	0.00	30.023 
08:15	70.3	70.3	70.3	66	58.4	0	1	292	0.00	30.024 
08:20	70.9	70.9	70.9	64	58.1	1	2	292	0.00	30.026 
08:25	71.5	71.5	71.5	63	58.2	0	1	292	0.00	30.025 
08:30	71.3	71.3	71.3	61	57.1	0	2	292	0.00	30.026 
08:35	70.9	70.9	70.9	62	57.2	1	3	315	0.00	30.029 
08:40	70.6	70.6	70.6	62	56.9	0	2	248	0.00	30.030 
08:45	70.6	70.6	70.6	64	57.8	0	2	248	0.00	30.032 
08:50	71.1	71.1	71.1	64	58.3	0	1	248	0.00	30.034 
08:55	71.5	71.5	71.5	62	57.8	0	1	248	0.00	30.034 
09:00	71.6	71.6	71.6	62	57.9	0	1	248	0.00	30.036 
09:05	72.0	72.0	72.0	62	58.3	0	1	248	0.00	30.039 
09:10	72.1	72.1	72.1	62	58.3	0	1	248	0.00	30.039 
09:15	72.5	72.5	72.5	63	59.2	0	1	248	0.00	30.039 
09:20	72.5	72.5	72.5	63	59.2	0	1	248	0.00	30.040 
09:25	72.3	72.3	72.3	62	58.5	0	1	248	0.00	30.039 
09:30	72.3	72.3	72.3	61	58.1	0	1	248	0.00	30.042 
09:35	72.3	72.3	72.3	62	58.5	0	1	248	0.00	30.046 
09:40	72.3	72.3	72.3	61	58.1	0	1	248	0.00	30.049 
09:45	72.3	72.3	72.3	61	58.1	0	1	248	0.00	30.053 
09:50	72.5	72.5	72.5	64	59.6	0	0	---	0.00	30.054 
09:55	72.8	72.8	72.8	61	58.6	0	1	248	0.00	30.054 
10:00	73.5	73.5	73.5	61	59.2	0	1	248	0.00	30.050 
10:05	74.4	74.4	74.4	60	59.6	0	2	248	0.00	30.051 
10:10	75.1	75.1	77.5	58	59.3	0	2	248	0.00	30.049 
10:15	75.8	75.8	77.8	61	61.4	1	3	248	0.00	30.040 
10:20	76.8	76.8	78.6	57	60.4	1	2	225	0.00	30.042 
10:25	77.4	77.4	79.1	58	61.4	1	2	158	0.00	30.046 
10:30	77.6	77.6	79.2	57	61.1	0	2	158	0.00	30.041 
10:35	78.1	78.1	79.6	56	61.1	0	2	202	0.00	30.037 
10:40	78.8	78.8	80.3	57	62.3	0	2	158	0.00	30.038 
10:45	79.4	79.4	80.7	55	61.8	1	4	112	0.00	30.037 
10:50	79.6	79.6	81.0	56	62.5	1	3	248	0.00	30.034 
10:55	79.8	79.8	81.4	58	63.7	0	2	270	0.00	30.034 
11:00	80.3	80.3	81.4	53	61.6	1	4	90	0.00	30.031 
11:05	80.5	80.5	81.8	55	62.8	2	4	90	0.00	30.032 
11:10	80.3	80.3	81.6	55	62.6	1	3	90	0.00	30.033 
11:15	80.5	80.5	81.9	56	63.3	1	3	90	0.00	30.032 
11:20	80.5	80.5	81.9	56	63.3	0	1	0	0.00	30.032 
11:25	80.1	80.1	81.4	55	62.4	1	3	22	0.00	30.033 
11:30	80.3	80.3	81.9	58	64.2	1	4	90	0.00	30.031 
11:35	80.5	80.5	81.8	55	62.8	1	3	90	0.00	30.028 
11:40	80.5	80.5	82.2	58	64.3	0	3	90	0.00	30.027 
11:45	80.5	80.5	81.8	55	62.8	1	3	90	0.00	30.023 
11:50	80.7	80.7	82.4	58	64.5	1	2	270	0.00	30.020 
11:55	81.1	81.1	82.8	57	64.4	0	3	270	0.00	30.017 
12:00	81.1	81.1	82.6	56	63.9	0	3	270	0.00	30.018 
12:05	80.5	80.5	81.7	54	62.3	1	2	270	0.00	30.019 
12:10	80.1	80.1	81.6	57	63.5	1	3	270	0.00	30.020 
12:15	80.5	80.5	81.9	56	63.3	0	3	270	0.00	30.018 
12:20	80.7	80.7	82.2	56	63.5	1	3	270	0.00	30.018 
12:25	80.7	80.7	81.9	54	62.5	1	2	270	0.00	30.017 
12:30	80.7	80.7	82.3	57	64.0	0	5	292	0.00	30.016 
12:35	81.1	81.1	82.5	55	63.4	1	4	270	0.00	30.013 
12:40	80.9	80.9	82.3	55	63.2	1	3	270	0.00	30.016 
12:45	81.1	81.1	82.6	56	63.9	1	3	270	0.00	30.012 
12:50	81.6	81.6	82.9	54	63.3	1	4	292	0.00	30.007 
12:55	82.0	82.0	83.1	52	62.6	2	4	270	0.00	30.006 
13:00	82.4	82.4	83.4	51	62.4	1	3	270	0.00	30.001 
13:05	82.0	82.0	83.1	52	62.6	1	5	270	0.00	30.000 
13:10	81.8	81.8	82.8	52	62.4	2	5	270	0.00	30.001 
13:15	81.8	81.8	83.2	54	63.5	1	4	248	0.00	29.999 
13:20	81.8	81.8	83.0	53	63.0	2	6	270	0.00	29.997 
13:25	81.8	81.8	83.0	53	63.0	1	4	248	0.00	29.997 
13:30	81.2	81.2	82.6	55	63.5	1	3	248	0.00	29.996 
13:35	81.2	81.2	82.5	54	62.9	1	5	22	0.00	29.994 
13:40	81.1	81.1	82.2	53	62.3	1	3	270	0.00	29.994 
13:45	81.1	81.1	82.3	54	62.9	2	4	270	0.00	29.994 
13:50	80.9	80.9	82.1	54	62.7	1	5	270	0.00	29.996 
13:55	81.2	81.2	82.3	53	62.4	1	5	270	0.00	29.994 
14:00	82.2	82.2	83.6	54	63.9	1	4	270	0.00	29.990 
14:05	82.4	82.4	83.7	53	63.5	1	3	248	0.00	29.988 
14:10	82.0	82.0	83.1	52	62.6	1	4	248	0.00	29.986 
14:15	81.1	81.1	82.1	52	61.8	2	7	248	0.00	29.987 
14:20	81.2	81.2	82.3	53	62.4	1	3	248	0.00	29.987 
14:25	81.8	81.8	83.3	55	64.0	1	3	270	0.00	29.985 
14:30	82.4	82.4	83.5	52	63.0	1	4	248	0.00	29.984 
14:35	82.2	82.2	83.0	50	61.7	1	3	270	0.00	29.984 
14:40	81.8	81.8	82.8	52	62.4	1	3	225	0.00	29.982 
14:45	81.6	81.6	82.3	50	61.1	1	4	248	0.00	29.978 
14:50	81.6	81.6	82.5	51	61.7	1	3	248	0.00	29.982 
14:55	81.4	81.4	82.4	52	62.1	1	5	248	0.00	29.982 
15:00	81.8	81.8	82.8	52	62.4	1	3	270	0.00	29.979 
15:05	81.8	81.8	83.0	53	63.0	1	3	270	0.00	29.980 
15:10	82.0	82.0	83.2	53	63.2	1	5	248	0.00	29.977 
15:15	81.8	81.8	82.6	50	61.3	1	4	248	0.00	29.983 
15:20	81.6	81.6	82.3	50	61.1	1	4	248	0.00	29.982 
15:25	81.4	81.4	81.9	48	59.8	2	5	270	0.00	29.982 
15:30	81.8	81.8	82.7	51	61.9	1	3	248	0.00	29.978 
15:35	81.6	81.6	82.5	51	61.7	1	5	292	0.00	29.979 
15:40	81.8	81.8	82.7	51	61.9	1	3	248	0.00	29.975 
15:45	82.4	82.4	83.4	51	62.4	1	4	248	0.00	29.974 
15:50	83.0	83.0	83.5	48	61.3	2	5	270	0.00	29.972 
15:55	83.2	83.2	83.8	48	61.4	1	4	270	0.00	29.971 
16:00	83.4	83.4	83.8	47	61.0	2	4	270	0.00	29.969 
16:05	83.2	83.2	83.8	48	61.4	2	4	270	0.00	29.968 
16:10	83.2	83.2	83.8	48	61.4	2	4	270	0.00	29.966 
16:15	83.2	83.2	83.8	48	61.4	2	4	270	0.00	29.963 
16:20	83.2	83.2	83.8	48	61.4	2	6	270	0.00	29.963 
16:25	82.8	82.8	83.3	48	61.1	2	4	270	0.00	29.964 
16:30	82.8	82.8	83.2	47	60.5	2	5	270	0.00	29.964 
16:35	82.4	82.4	83.0	49	61.3	1	3	270	0.00	29.964 
16:40	82.4	82.4	82.9	48	60.7	2	4	270	0.00	29.964 
16:45	82.2	82.2	82.7	48	60.5	2	4	270	0.00	29.966 
16:50	82.2	82.2	82.7	48	60.5	1	3	270	0.00	29.965 
16:55	82.2	82.2	83.0	50	61.7	0	3	248	0.00	29.967 
17:00	82.6	82.6	83.6	51	62.6	0	2	270	0.00	29.961 
17:05	82.6	82.6	83.3	49	61.5	1	2	270	0.00	29.958 
17:10	82.4	82.4	83.2	50	61.9	1	4	248	0.00	29.957 
17:15	82.0	82.0	82.6	49	60.9	1	5	248	0.00	29.956 
17:20	81.8	81.8	82.6	50	61.3	1	4	270	0.00	29.957 
17:25	81.6	81.6	82.3	50	61.1	1	2	270	0.00	29.954 
17:30	81.4	81.4	82.1	50	60.9	1	6	248	0.00	29.956 
17:35	81.4	81.4	82.1	50	60.9	1	3	248	0.00	29.957 
17:40	81.4	81.4	82.3	51	61.5	1	3	270	0.00	29.958 
17:45	81.2	81.2	82.1	51	61.3	1	2	292	0.00	29.958 
17:50	81.2	81.2	82.2	52	61.9	0	2	292	0.00	29.955 
17:55	81.2	81.2	82.2	52	61.9	0	3	292	0.00	29.955 
18:00	81.1	81.1	82.0	51	61.2	1	4	270	0.00	29.956 
18:05	81.1	81.1	82.1	52	61.8	1	3	270	0.00	29.954 
18:10	80.9	80.9	81.9	52	61.6	1	3	270	0.00	29.951 
18:15	80.9	80.9	82.0	53	62.1	0	2	248	0.00	29.953 
18:20	80.7	80.7	81.8	53	62.0	0	1	248	0.00	29.953 
18:25	80.7	80.7	81.7	52	61.4	1	4	270	0.00	29.952 
18:30	80.7	80.7	81.9	54	62.5	0	3	270	0.00	29.955 
18:35	80.5	80.5	81.7	54	62.3	0	1	270	0.00	29.954 
18:40	80.3	80.3	81.6	55	62.6	0	1	270	0.00	29.955 
18:45	80.1	80.1	81.3	54	61.9	1	2	270	0.00	29.964 
18:50	79.9	79.9	81.2	55	62.3	1	3	270	0.00	29.967 
18:55	79.8	79.8	81.0	54	61.7	1	3	270	0.00	29.967 
19:00	79.8	79.8	81.1	55	62.2	1	3	248	0.00	29.966 
19:05	79.6	79.6	80.9	55	62.0	0	1	248	0.00	29.960 
19:10	79.4	79.4	80.7	55	61.8	0	2	248	0.00	29.957 
19:15	79.4	79.4	80.7	55	61.8	0	2	248	0.00	29.960 
19:20	79.4	79.4	80.7	55	61.8	0	1	248	0.00	29.956 
19:25	79.2	79.2	80.6	56	62.1	0	1	248	0.00	29.950 
19:30	79.0	79.0	80.4	56	61.9	0	1	248	0.00	29.950 
19:35	78.8	78.8	80.3	57	62.3	0	1	248	0.00	29.949 
19:40	78.6	78.6	80.1	57	62.1	0	1	248	0.00	29.947 
19:45	78.5	78.5	80.0	58	62.5	0	1	248	0.00	29.947 
19:50	78.3	78.3	79.9	58	62.3	0	2	248	0.00	29.946 
19:55	78.1	78.1	79.7	58	62.1	0	1	248	0.00	29.946 
20:00	77.9	77.9	79.5	58	61.9	0	0	---	0.00	29.944 
20:05	77.7	77.7	79.4	59	62.2	0	0	---	0.00	29.938 
20:10	77.7	77.7	79.4	59	62.2	0	0	---	0.00	29.940 
20:15	77.6	77.6	79.3	60	62.6	0	0	---	0.00	29.938 
20:20	77.2	77.2	78.9	60	62.2	0	0	---	0.00	29.938 
20:25	77.0	77.0	78.8	62	63.0	0	0	---	0.00	29.945 
20:30	77.0	77.0	78.8	61	62.5	0	1	248	0.00	29.946 
20:35	76.8	76.8	78.6	60	61.8	0	2	248	0.00	29.946 
20:40	77.0	77.0	78.8	60	62.0	0	1	248	0.00	29.941 
20:45	77.0	77.0	78.8	59	61.6	0	1	248	0.00	29.940 
20:50	76.8	76.8	78.6	60	61.8	0	1	248	0.00	29.939 
20:55	76.7	76.7	78.5	60	61.7	0	1	248	0.00	29.944 
21:00	76.5	76.5	78.4	61	62.0	0	1	248	0.00	29.937 
21:05	76.3	76.3	78.2	61	61.8	0	1	248	0.00	29.938 
21:10	76.1	76.1	78.1	61	61.7	0	2	248	0.00	29.930 
21:15	76.1	76.1	78.1	60	61.2	0	3	248	0.00	29.930 
21:20	76.0	76.0	78.0	62	62.0	0	1	90	0.00	29.932 
21:25	75.8	75.8	77.8	62	61.8	0	1	90	0.00	29.933 
21:30	75.6	75.6	77.7	62	61.6	1	3	112	0.00	29.925 
21:35	75.6	75.6	77.7	62	61.6	1	5	112	0.00	29.922 
21:40	75.6	75.6	77.6	63	62.1	0	1	158	0.00	29.925 
21:45	75.3	75.3	77.4	64	62.3	0	2	180	0.00	29.941 
21:50	75.1	75.1	77.1	65	62.5	0	2	202	0.00	29.945 
21:55	74.9	74.9	74.9	65	62.3	0	1	202	0.00	29.945 
22:00	74.7	74.7	74.7	65	62.1	0	1	225	0.00	29.947 
22:05	74.7	74.7	74.7	65	62.1	0	1	225	0.00	29.943 
22:10	74.6	74.6	74.6	65	62.0	0	1	225	0.00	29.943 
22:15	74.6	74.6	74.6	65	62.0	0	1	225	0.00	29.949 
22:20	74.6	74.6	74.6	65	62.0	0	1	225	0.00	29.950 
22:25	74.6	74.6	74.6	66	62.5	0	0	---	0.00	29.949 
22:30	74.4	74.4	74.4	66	62.3	0	1	225	0.00	29.950 
22:35	74.6	74.6	74.6	65	62.0	1	3	225	0.00	29.949 
22:40	75.4	75.4	77.6	60	60.5	3	7	270	0.00	29.948 
22:45	76.5	76.5	78.4	59	61.1	2	7	270	0.00	29.957 
22:50	76.5	76.5	78.4	60	61.6	1	3	248	0.00	29.957 
22:55	76.3	76.3	78.2	59	60.9	1	3	270	0.00	29.957 
23:00	76.3	76.3	78.2	59	60.9	1	4	270	0.00	29.951 
23:05	76.1	76.1	78.1	59	60.7	2	4	270	0.00	29.942 
23:10	76.1	76.1	78.1	58	60.2	1	4	270	0.00	29.939 
23:15	76.0	76.0	78.1	56	59.2	2	5	270	0.00	29.926 
23:20	76.0	76.0	78.1	57	59.6	2	4	248	0.00	29.928 
23:25	75.8	75.8	77.9	58	59.9	2	5	248	0.00	29.927 
23:30	75.6	75.6	77.8	59	60.2	2	6	248	0.00	29.923 
23:35	75.3	75.3	77.6	59	60.0	2	5	248	0.00	29.919 
23:40	74.9	74.9	74.9	61	60.5	2	6	248	0.00	29.918 
23:45	74.6	74.6	74.6	61	60.2	1	7	248	0.00	29.912 
23:50	74.2	74.2	74.2	61	59.9	1	6	248	0.00	29.913 
23:55	73.9	73.9	73.9	62	60.0	1	3	248	0.00	29.912 

CoCoRaHS
IN-AL-39
A2 Web Hosting
Creative Commons License
GoDaddy
Look for:

loaded 2017-10-18 07:13:23 • last modified 2010-11-18 10:43:29
Privacy PolicyDisclaimer
• wx.awcolley.com is powered by PmWiki v.2002016 •
• all content (unless otherwise noted) © 2017 A W Colley